РУС

ENG

 
  Pireps - S7
 

Рейс SBI2071

  • Выполнял: Danil Belov
  • Аэропорт отправления: Domodedovo Airport (UUDD)
  • Аэропорт назначения: Pashkovskiy Krasnodar Intl. (URKK)
  • Тип ВС: A320-214 (VQ-BES)
  • Время полёта: 02.02
  • Дата полёта: 14.11.2020
  • Маршрут: FV R11 TS R808 KANON B145 MIMRA A100 AMEPU W70 TEMGI
  • Статус: Одобрен

Детали полёта
Gross Revenue:
(140 load / $ 120.00 per unit
$ 16, 800.00
Fuel Cost:
(5028 fuel used @ 5.1 / unit)
$ 25, 642.80


Дополнительная информация о полёте:

Лог

Aircraft Used in flight is Aerosoft Airbus A320Neo S7 VQ-BCF
15:11 Boarding
15:11 Engine 1 Started
15:11 Engine 2 Started
15:11 Beacon Lights ON at 600 AGL
15:11 Brakes are On
15:18 Strobe Lights ON at 600 AGL
15:18 Navigation Lights ON at 600 AGL
15:18 Taxi Lights ON at 600 AGL
15:18 Brakes are Released
15:18 Pushing back
15:20Flaps 1 Selected at 600ft and 13kts
15:20Flaps 2 Selected at 600ft and 13kts
15:20Flaps 3 Selected at 600ft and 13kts
15:24 Landing Lights ON at 600 AGL
15:24 Taxi Lights OFF at 600 AGL
15:25 You Took off @ 171 Knots and Flaps at Position 3
Departure Weather
UUDD 141200Z 14003MPS 9999 OVC019 03/M01 Q1027 R88/CLRD60 NOSIG
15:25 Landing Gear Up @ 176 Knots and 650 Feet
15:25Flaps 2 Selected at 1830ft and 190kts
15:26Flaps 1 Selected at 3280ft and 210kts
15:26Flaps Retracted at 3670ft and 218kts
15:27 Landing Lights OFF at 5160 AGL
16:58 Below 10000 feet you are not allowed to go over 250 knots
17:00 Landing Lights ON at 5460 AGL
17:02Flaps 1 Selected at 2970ft and 229kts
17:02Flaps 3 Selected at 2910ft and 203kts
17:02Flaps 4 Selected at 2850ft and 183kts
17:02 Landing Gear Down @ 178 Knots and 2830 Feet
17:02Flaps 5 Selected at 2800ft and 171kts
17:07 You Landed @ 134 Knots and with -250 Vertical Speed
Arrival Weather
URKK 141200Z 06003MPS 030V090 CAVOK 12/02 Q1022 R05R/CLRD70 NOSIG RMK QFE763=
17:08 Taxiing to gate
17:09 Taxi Lights ON at 130 AGL
17:09Flaps Retracted at 130ft and 14kts
17:11 Brakes are On
17:12 Engine 1 Stoped
17:12 Engine 2 Stoped
17:12 Landing Lights OFF at 130 AGL
17:12 Taxi Lights OFF at 130 AGL
17:13 Strobe Lights OFF at 130 AGL
Pirep logged with S7 Tracking 1.0.0.14



Общая оценка полета : 100%




Route Map



 
 
   
 
Новости

03.09.2020 - Полеты в MFS 2020

Спешим сообщить вам, что теперь наш S7 Pad поддерживается для полетов в новом симуляторе MFS 2020. В разделе Загрузки вы найдете FSUIPC7.rar
Инструкция для запуска прилагается!

   
 
Авторизация






Регистрация

Восстановить пароль?

Мы в соц. сетях

      



   
 





   
 


   
 


Яндекс.Метрика

www.va-s7.ru 2011-2020
Все права защищены.



Минуточку внимания!
Сайт va-s7.ru не является коммерческим проектом. Мы не имеем отношения к торговым маркам "S7" и "Globus" и их представителям.
Эмблемы на сайте являются собственностью соответствующих компаний.

аэронавигационная метеорологическая и любая другая информация с данного ресурса ни в коем случае не должна использоваться для реальных полетов